sensor_id;sensor_type;location;lat;lon;timestamp;P1;durP1;ratioP1;P2;durP2;ratioP2
43124;SDS011;49182;50.788;7.318;2023-03-22T00:01:22;6.85;;;3.42;;
43124;SDS011;49182;50.788;7.318;2023-03-22T00:03:50;6.43;;;2.95;;
43124;SDS011;49182;50.788;7.318;2023-03-22T00:06:17;6.32;;;3.20;;
43124;SDS011;49182;50.788;7.318;2023-03-22T00:08:47;9.63;;;3.05;;
43124;SDS011;49182;50.788;7.318;2023-03-22T00:11:14;7.47;;;3.00;;
43124;SDS011;49182;50.788;7.318;2023-03-22T00:13:42;5.80;;;3.08;;
43124;SDS011;49182;50.788;7.318;2023-03-22T00:16:09;7.43;;;2.97;;
43124;SDS011;49182;50.788;7.318;2023-03-22T00:18:36;9.20;;;3.17;;
43124;SDS011;49182;50.788;7.318;2023-03-22T00:21:02;10.85;;;3.78;;
43124;SDS011;49182;50.788;7.318;2023-03-22T00:23:30;8.50;;;3.55;;
43124;SDS011;49182;50.788;7.318;2023-03-22T00:25:57;11.07;;;3.50;;
43124;SDS011;49182;50.788;7.318;2023-03-22T00:28:23;6.70;;;3.28;;
43124;SDS011;49182;50.788;7.318;2023-03-22T00:30:52;10.45;;;3.70;;
43124;SDS011;49182;50.788;7.318;2023-03-22T00:33:21;9.35;;;3.55;;
43124;SDS011;49182;50.788;7.318;2023-03-22T00:35:48;10.13;;;3.92;;
43124;SDS011;49182;50.788;7.318;2023-03-22T00:38:16;6.82;;;3.63;;
43124;SDS011;49182;50.788;7.318;2023-03-22T00:40:43;10.45;;;3.42;;
43124;SDS011;49182;50.788;7.318;2023-03-22T00:43:10;6.97;;;2.92;;
43124;SDS011;49182;50.788;7.318;2023-03-22T00:45:36;5.07;;;2.42;;
43124;SDS011;49182;50.788;7.318;2023-03-22T00:48:04;6.15;;;2.58;;
43124;SDS011;49182;50.788;7.318;2023-03-22T00:50:32;9.93;;;2.90;;
43124;SDS011;49182;50.788;7.318;2023-03-22T00:52:58;6.20;;;2.33;;
43124;SDS011;49182;50.788;7.318;2023-03-22T00:55:25;10.25;;;4.13;;
43124;SDS011;49182;50.788;7.318;2023-03-22T00:57:52;6.35;;;2.60;;
43124;SDS011;49182;50.788;7.318;2023-03-22T01:00:18;11.25;;;3.17;;
43124;SDS011;49182;50.788;7.318;2023-03-22T01:02:45;8.85;;;3.20;;
43124;SDS011;49182;50.788;7.318;2023-03-22T01:05:18;7.35;;;3.08;;
43124;SDS011;49182;50.788;7.318;2023-03-22T01:07:45;8.80;;;3.75;;
43124;SDS011;49182;50.788;7.318;2023-03-22T01:10:11;7.65;;;3.60;;
43124;SDS011;49182;50.788;7.318;2023-03-22T01:12:38;7.45;;;3.25;;
43124;SDS011;49182;50.788;7.318;2023-03-22T01:15:05;7.75;;;3.60;;
43124;SDS011;49182;50.788;7.318;2023-03-22T01:17:33;7.03;;;3.10;;
43124;SDS011;49182;50.788;7.318;2023-03-22T01:19:59;6.22;;;2.90;;
43124;SDS011;49182;50.788;7.318;2023-03-22T01:22:28;5.97;;;2.90;;
43124;SDS011;49182;50.788;7.318;2023-03-22T01:24:55;6.50;;;3.03;;
43124;SDS011;49182;50.788;7.318;2023-03-22T01:27:22;8.13;;;2.83;;
43124;SDS011;49182;50.788;7.318;2023-03-22T01:29:48;4.55;;;2.33;;
43124;SDS011;49182;50.788;7.318;2023-03-22T01:32:15;5.72;;;2.70;;
43124;SDS011;49182;50.788;7.318;2023-03-22T01:34:42;5.80;;;3.00;;
43124;SDS011;49182;50.788;7.318;2023-03-22T01:37:09;7.32;;;3.72;;
43124;SDS011;49182;50.788;7.318;2023-03-22T01:39:43;9.48;;;3.63;;
43124;SDS011;49182;50.788;7.318;2023-03-22T01:42:12;11.77;;;4.13;;
43124;SDS011;49182;50.788;7.318;2023-03-22T01:44:39;7.68;;;3.90;;
43124;SDS011;49182;50.788;7.318;2023-03-22T01:47:08;7.88;;;3.80;;
43124;SDS011;49182;50.788;7.318;2023-03-22T01:49:36;6.43;;;3.25;;
43124;SDS011;49182;50.788;7.318;2023-03-22T01:52:04;6.75;;;2.92;;
43124;SDS011;49182;50.788;7.318;2023-03-22T01:54:58;8.63;;;2.50;;
43124;SDS011;49182;50.788;7.318;2023-03-22T01:57:37;9.50;;;2.40;;
43124;SDS011;49182;50.788;7.318;2023-03-22T02:00:11;9.23;;;2.88;;
43124;SDS011;49182;50.788;7.318;2023-03-22T02:02:38;7.82;;;2.45;;
43124;SDS011;49182;50.788;7.318;2023-03-22T02:05:18;5.07;;;2.35;;
43124;SDS011;49182;50.788;7.318;2023-03-22T02:07:45;5.85;;;2.33;;
43124;SDS011;49182;50.788;7.318;2023-03-22T02:10:15;7.60;;;2.38;;
43124;SDS011;49182;50.788;7.318;2023-03-22T02:12:57;4.88;;;2.42;;
43124;SDS011;49182;50.788;7.318;2023-03-22T02:15:57;7.97;;;3.10;;
43124;SDS011;49182;50.788;7.318;2023-03-22T02:18:48;8.00;;;2.70;;
43124;SDS011;49182;50.788;7.318;2023-03-22T02:24:29;11.85;;;3.88;;
43124;SDS011;49182;50.788;7.318;2023-03-22T02:30:19;6.13;;;2.75;;
43124;SDS011;49182;50.788;7.318;2023-03-22T02:33:11;7.05;;;2.80;;
43124;SDS011;49182;50.788;7.318;2023-03-22T02:36:01;8.05;;;3.03;;
43124;SDS011;49182;50.788;7.318;2023-03-22T02:38:58;6.07;;;2.30;;
43124;SDS011;49182;50.788;7.318;2023-03-22T02:41:36;7.03;;;3.65;;
43124;SDS011;49182;50.788;7.318;2023-03-22T02:44:14;5.82;;;3.20;;
43124;SDS011;49182;50.788;7.318;2023-03-22T02:46:50;9.32;;;2.97;;
43124;SDS011;49182;50.788;7.318;2023-03-22T02:49:24;5.47;;;2.47;;
43124;SDS011;49182;50.788;7.318;2023-03-22T02:51:59;9.57;;;3.05;;
43124;SDS011;49182;50.788;7.318;2023-03-22T02:54:32;5.60;;;3.05;;
43124;SDS011;49182;50.788;7.318;2023-03-22T02:57:07;6.10;;;2.75;;
43124;SDS011;49182;50.788;7.318;2023-03-22T02:59:37;6.07;;;2.90;;
43124;SDS011;49182;50.788;7.318;2023-03-22T03:02:06;11.10;;;2.95;;
43124;SDS011;49182;50.788;7.318;2023-03-22T03:04:37;6.43;;;2.85;;
43124;SDS011;49182;50.788;7.318;2023-03-22T03:07:09;5.55;;;2.83;;
43124;SDS011;49182;50.788;7.318;2023-03-22T03:09:40;6.32;;;2.80;;
43124;SDS011;49182;50.788;7.318;2023-03-22T03:12:12;12.18;;;3.38;;
43124;SDS011;49182;50.788;7.318;2023-03-22T03:14:41;7.82;;;3.90;;
43124;SDS011;49182;50.788;7.318;2023-03-22T03:17:12;6.47;;;3.10;;
43124;SDS011;49182;50.788;7.318;2023-03-22T03:19:55;5.70;;;2.90;;
43124;SDS011;49182;50.788;7.318;2023-03-22T03:22:35;5.00;;;2.30;;
43124;SDS011;49182;50.788;7.318;2023-03-22T03:25:13;8.52;;;3.33;;
43124;SDS011;49182;50.788;7.318;2023-03-22T03:27:50;8.32;;;2.72;;
43124;SDS011;49182;50.788;7.318;2023-03-22T03:30:24;7.10;;;2.70;;
43124;SDS011;49182;50.788;7.318;2023-03-22T03:32:58;8.35;;;3.10;;
43124;SDS011;49182;50.788;7.318;2023-03-22T03:35:31;7.68;;;3.40;;
43124;SDS011;49182;50.788;7.318;2023-03-22T03:38:02;6.82;;;3.42;;
43124;SDS011;49182;50.788;7.318;2023-03-22T03:40:35;8.25;;;3.60;;
43124;SDS011;49182;50.788;7.318;2023-03-22T03:43:06;9.82;;;4.18;;
43124;SDS011;49182;50.788;7.318;2023-03-22T03:45:34;7.32;;;3.90;;
43124;SDS011;49182;50.788;7.318;2023-03-22T03:48:03;8.73;;;4.03;;
43124;SDS011;49182;50.788;7.318;2023-03-22T03:50:35;7.75;;;3.78;;
43124;SDS011;49182;50.788;7.318;2023-03-22T03:53:03;11.27;;;3.58;;
43124;SDS011;49182;50.788;7.318;2023-03-22T03:55:30;5.95;;;3.15;;
43124;SDS011;49182;50.788;7.318;2023-03-22T03:57:59;8.43;;;2.92;;
43124;SDS011;49182;50.788;7.318;2023-03-22T04:00:26;6.60;;;3.38;;
43124;SDS011;49182;50.788;7.318;2023-03-22T04:03:15;10.65;;;3.67;;
43124;SDS011;49182;50.788;7.318;2023-03-22T04:06:01;10.13;;;3.50;;
43124;SDS011;49182;50.788;7.318;2023-03-22T04:08:32;6.40;;;3.30;;
43124;SDS011;49182;50.788;7.318;2023-03-22T04:10:59;11.90;;;3.53;;
43124;SDS011;49182;50.788;7.318;2023-03-22T04:13:28;7.18;;;3.63;;
43124;SDS011;49182;50.788;7.318;2023-03-22T04:15:58;12.30;;;3.50;;
43124;SDS011;49182;50.788;7.318;2023-03-22T04:18:24;9.27;;;3.40;;
43124;SDS011;49182;50.788;7.318;2023-03-22T04:20:51;6.85;;;3.22;;
43124;SDS011;49182;50.788;7.318;2023-03-22T04:23:19;7.30;;;3.05;;
43124;SDS011;49182;50.788;7.318;2023-03-22T04:25:45;8.57;;;2.95;;
43124;SDS011;49182;50.788;7.318;2023-03-22T04:28:12;7.30;;;3.25;;
43124;SDS011;49182;50.788;7.318;2023-03-22T04:30:40;10.07;;;3.78;;
43124;SDS011;49182;50.788;7.318;2023-03-22T04:33:26;13.00;;;4.65;;
43124;SDS011;49182;50.788;7.318;2023-03-22T04:36:12;7.43;;;3.58;;
43124;SDS011;49182;50.788;7.318;2023-03-22T04:38:50;8.57;;;3.75;;
43124;SDS011;49182;50.788;7.318;2023-03-22T04:41:21;7.78;;;3.60;;
43124;SDS011;49182;50.788;7.318;2023-03-22T04:43:50;10.98;;;4.22;;
43124;SDS011;49182;50.788;7.318;2023-03-22T04:46:19;9.00;;;3.53;;
43124;SDS011;49182;50.788;7.318;2023-03-22T04:48:51;11.23;;;3.78;;
43124;SDS011;49182;50.788;7.318;2023-03-22T04:51:19;9.20;;;3.65;;
43124;SDS011;49182;50.788;7.318;2023-03-22T04:54:10;9.10;;;3.63;;
43124;SDS011;49182;50.788;7.318;2023-03-22T04:56:40;10.25;;;4.10;;
43124;SDS011;49182;50.788;7.318;2023-03-22T04:59:06;7.63;;;3.72;;
43124;SDS011;49182;50.788;7.318;2023-03-22T05:01:34;10.88;;;4.53;;
43124;SDS011;49182;50.788;7.318;2023-03-22T05:04:15;7.28;;;4.00;;
43124;SDS011;49182;50.788;7.318;2023-03-22T05:06:43;9.52;;;4.20;;
43124;SDS011;49182;50.788;7.318;2023-03-22T05:09:16;15.60;;;3.85;;
43124;SDS011;49182;50.788;7.318;2023-03-22T05:11:44;8.82;;;3.97;;
43124;SDS011;49182;50.788;7.318;2023-03-22T05:14:23;9.35;;;4.30;;
43124;SDS011;49182;50.788;7.318;2023-03-22T05:16:52;9.82;;;5.35;;
43124;SDS011;49182;50.788;7.318;2023-03-22T05:19:19;10.18;;;3.90;;
43124;SDS011;49182;50.788;7.318;2023-03-22T05:21:46;10.95;;;3.90;;
43124;SDS011;49182;50.788;7.318;2023-03-22T05:24:13;6.53;;;3.58;;
43124;SDS011;49182;50.788;7.318;2023-03-22T05:26:45;9.43;;;3.50;;
43124;SDS011;49182;50.788;7.318;2023-03-22T05:29:11;8.38;;;3.63;;
43124;SDS011;49182;50.788;7.318;2023-03-22T05:32:01;11.02;;;4.57;;
43124;SDS011;49182;50.788;7.318;2023-03-22T05:34:28;14.40;;;5.60;;
43124;SDS011;49182;50.788;7.318;2023-03-22T05:36:55;9.15;;;4.70;;
43124;SDS011;49182;50.788;7.318;2023-03-22T05:39:28;14.02;;;5.10;;
43124;SDS011;49182;50.788;7.318;2023-03-22T05:41:56;14.60;;;4.97;;
43124;SDS011;49182;50.788;7.318;2023-03-22T05:44:22;9.77;;;4.75;;
43124;SDS011;49182;50.788;7.318;2023-03-22T05:47:00;9.48;;;5.00;;
43124;SDS011;49182;50.788;7.318;2023-03-22T05:49:37;18.25;;;5.57;;
43124;SDS011;49182;50.788;7.318;2023-03-22T05:52:05;9.70;;;4.57;;
43124;SDS011;49182;50.788;7.318;2023-03-22T05:54:56;10.70;;;5.20;;
43124;SDS011;49182;50.788;7.318;2023-03-22T05:57:22;9.10;;;4.93;;
43124;SDS011;49182;50.788;7.318;2023-03-22T05:59:49;10.20;;;4.70;;
43124;SDS011;49182;50.788;7.318;2023-03-22T06:02:23;9.75;;;4.50;;
43124;SDS011;49182;50.788;7.318;2023-03-22T06:04:50;103.50;;;33.20;;
43124;SDS011;49182;50.788;7.318;2023-03-22T06:07:18;47.25;;;16.88;;
43124;SDS011;49182;50.788;7.318;2023-03-22T06:09:50;31.58;;;11.73;;
43124;SDS011;49182;50.788;7.318;2023-03-22T06:12:20;25.95;;;10.88;;
43124;SDS011;49182;50.788;7.318;2023-03-22T06:14:51;43.03;;;17.40;;
43124;SDS011;49182;50.788;7.318;2023-03-22T06:17:30;25.27;;;10.55;;
43124;SDS011;49182;50.788;7.318;2023-03-22T06:19:56;30.90;;;12.57;;
43124;SDS011;49182;50.788;7.318;2023-03-22T06:22:23;21.80;;;8.27;;
43124;SDS011;49182;50.788;7.318;2023-03-22T06:24:51;17.58;;;7.60;;
43124;SDS011;49182;50.788;7.318;2023-03-22T06:27:27;16.08;;;7.63;;
43124;SDS011;49182;50.788;7.318;2023-03-22T06:29:54;14.73;;;7.07;;
43124;SDS011;49182;50.788;7.318;2023-03-22T06:32:24;17.40;;;7.72;;
43124;SDS011;49182;50.788;7.318;2023-03-22T06:34:52;14.32;;;6.80;;
43124;SDS011;49182;50.788;7.318;2023-03-22T06:37:21;12.73;;;6.43;;
43124;SDS011;49182;50.788;7.318;2023-03-22T06:39:48;12.63;;;6.40;;
43124;SDS011;49182;50.788;7.318;2023-03-22T06:42:15;12.70;;;6.22;;
43124;SDS011;49182;50.788;7.318;2023-03-22T06:44:45;11.70;;;6.32;;
43124;SDS011;49182;50.788;7.318;2023-03-22T06:47:24;13.23;;;7.22;;
43124;SDS011;49182;50.788;7.318;2023-03-22T06:50:12;13.15;;;6.13;;
43124;SDS011;49182;50.788;7.318;2023-03-22T06:52:59;14.00;;;6.30;;
43124;SDS011;49182;50.788;7.318;2023-03-22T06:55:26;15.73;;;6.80;;
43124;SDS011;49182;50.788;7.318;2023-03-22T06:57:53;16.65;;;7.45;;
43124;SDS011;49182;50.788;7.318;2023-03-22T07:00:20;12.48;;;7.20;;
43124;SDS011;49182;50.788;7.318;2023-03-22T07:02:47;16.40;;;8.35;;
43124;SDS011;49182;50.788;7.318;2023-03-22T07:05:27;16.95;;;10.25;;
43124;SDS011;49182;50.788;7.318;2023-03-22T07:07:54;16.65;;;7.47;;
43124;SDS011;49182;50.788;7.318;2023-03-22T07:10:21;13.70;;;7.22;;
43124;SDS011;49182;50.788;7.318;2023-03-22T07:12:48;13.07;;;8.30;;
43124;SDS011;49182;50.788;7.318;2023-03-22T07:15:16;15.20;;;7.57;;
43124;SDS011;49182;50.788;7.318;2023-03-22T07:18:05;14.00;;;7.25;;
43124;SDS011;49182;50.788;7.318;2023-03-22T07:20:34;19.80;;;10.93;;
43124;SDS011;49182;50.788;7.318;2023-03-22T07:23:01;21.08;;;11.32;;
43124;SDS011;49182;50.788;7.318;2023-03-22T07:25:32;15.90;;;8.35;;
43124;SDS011;49182;50.788;7.318;2023-03-22T07:28:12;15.73;;;7.78;;
43124;SDS011;49182;50.788;7.318;2023-03-22T07:30:40;14.55;;;7.25;;
43124;SDS011;49182;50.788;7.318;2023-03-22T07:33:07;15.25;;;6.70;;
43124;SDS011;49182;50.788;7.318;2023-03-22T07:35:38;10.95;;;6.97;;
43124;SDS011;49182;50.788;7.318;2023-03-22T07:38:05;12.40;;;6.30;;
43124;SDS011;49182;50.788;7.318;2023-03-22T07:40:32;12.77;;;6.18;;
43124;SDS011;49182;50.788;7.318;2023-03-22T07:42:59;11.93;;;6.18;;
43124;SDS011;49182;50.788;7.318;2023-03-22T07:45:47;11.45;;;5.40;;
43124;SDS011;49182;50.788;7.318;2023-03-22T07:48:32;10.00;;;5.38;;
43124;SDS011;49182;50.788;7.318;2023-03-22T07:51:32;10.60;;;5.68;;
43124;SDS011;49182;50.788;7.318;2023-03-22T07:53:59;12.38;;;5.43;;
43124;SDS011;49182;50.788;7.318;2023-03-22T07:56:26;9.68;;;5.32;;
43124;SDS011;49182;50.788;7.318;2023-03-22T07:58:53;13.80;;;5.70;;
43124;SDS011;49182;50.788;7.318;2023-03-22T08:01:19;8.13;;;4.80;;
43124;SDS011;49182;50.788;7.318;2023-03-22T08:04:06;9.43;;;5.53;;
43124;SDS011;49182;50.788;7.318;2023-03-22T08:07:03;9.73;;;5.32;;
43124;SDS011;49182;50.788;7.318;2023-03-22T08:09:30;15.00;;;5.80;;
43124;SDS011;49182;50.788;7.318;2023-03-22T08:11:57;7.93;;;3.15;;
43124;SDS011;49182;50.788;7.318;2023-03-22T08:14:23;7.95;;;2.95;;
43124;SDS011;49182;50.788;7.318;2023-03-22T08:17:04;6.70;;;2.63;;
43124;SDS011;49182;50.788;7.318;2023-03-22T08:19:31;4.78;;;1.55;;
43124;SDS011;49182;50.788;7.318;2023-03-22T08:21:58;16.38;;;2.20;;
43124;SDS011;49182;50.788;7.318;2023-03-22T08:24:48;7.88;;;1.95;;
43124;SDS011;49182;50.788;7.318;2023-03-22T08:27:24;5.60;;;1.80;;
43124;SDS011;49182;50.788;7.318;2023-03-22T08:29:53;4.55;;;1.40;;
43124;SDS011;49182;50.788;7.318;2023-03-22T08:32:19;3.95;;;1.50;;
43124;SDS011;49182;50.788;7.318;2023-03-22T08:34:47;3.85;;;1.45;;
43124;SDS011;49182;50.788;7.318;2023-03-22T08:37:13;6.82;;;2.40;;
43124;SDS011;49182;50.788;7.318;2023-03-22T08:39:42;7.93;;;1.60;;
43124;SDS011;49182;50.788;7.318;2023-03-22T08:42:22;4.43;;;1.30;;
43124;SDS011;49182;50.788;7.318;2023-03-22T08:44:49;5.35;;;1.27;;
43124;SDS011;49182;50.788;7.318;2023-03-22T08:47:17;5.10;;;1.38;;
43124;SDS011;49182;50.788;7.318;2023-03-22T08:49:48;3.27;;;1.47;;
43124;SDS011;49182;50.788;7.318;2023-03-22T08:52:21;4.25;;;1.30;;
43124;SDS011;49182;50.788;7.318;2023-03-22T08:54:55;3.20;;;1.20;;
43124;SDS011;49182;50.788;7.318;2023-03-22T08:57:41;3.47;;;1.00;;
43124;SDS011;49182;50.788;7.318;2023-03-22T09:00:25;5.30;;;1.10;;
43124;SDS011;49182;50.788;7.318;2023-03-22T09:02:59;4.32;;;1.08;;
43124;SDS011;49182;50.788;7.318;2023-03-22T09:05:26;5.65;;;2.58;;
43124;SDS011;49182;50.788;7.318;2023-03-22T09:07:53;3.03;;;1.10;;
43124;SDS011;49182;50.788;7.318;2023-03-22T09:10:33;3.95;;;1.02;;
43124;SDS011;49182;50.788;7.318;2023-03-22T09:13:04;3.78;;;1.10;;
43124;SDS011;49182;50.788;7.318;2023-03-22T09:15:31;5.88;;;1.38;;
43124;SDS011;49182;50.788;7.318;2023-03-22T09:20:43;4.25;;;1.00;;
43124;SDS011;49182;50.788;7.318;2023-03-22T09:23:12;3.88;;;1.15;;
43124;SDS011;49182;50.788;7.318;2023-03-22T09:25:41;4.40;;;1.08;;
43124;SDS011;49182;50.788;7.318;2023-03-22T09:28:09;4.80;;;1.30;;
43124;SDS011;49182;50.788;7.318;2023-03-22T09:30:36;5.28;;;1.20;;
43124;SDS011;49182;50.788;7.318;2023-03-22T09:33:06;4.47;;;1.23;;
43124;SDS011;49182;50.788;7.318;2023-03-22T09:35:34;5.60;;;0.95;;
43124;SDS011;49182;50.788;7.318;2023-03-22T09:38:06;3.60;;;1.10;;
43124;SDS011;49182;50.788;7.318;2023-03-22T09:40:36;3.60;;;0.93;;
43124;SDS011;49182;50.788;7.318;2023-03-22T09:43:11;5.28;;;1.20;;
43124;SDS011;49182;50.788;7.318;2023-03-22T09:45:41;7.55;;;1.42;;
43124;SDS011;49182;50.788;7.318;2023-03-22T09:48:12;3.35;;;0.82;;
43124;SDS011;49182;50.788;7.318;2023-03-22T09:50:44;5.65;;;0.95;;
43124;SDS011;49182;50.788;7.318;2023-03-22T09:53:14;5.03;;;0.82;;
43124;SDS011;49182;50.788;7.318;2023-03-22T09:55:43;6.70;;;1.17;;
43124;SDS011;49182;50.788;7.318;2023-03-22T09:58:18;4.90;;;0.90;;
43124;SDS011;49182;50.788;7.318;2023-03-22T10:00:51;3.92;;;1.08;;
43124;SDS011;49182;50.788;7.318;2023-03-22T10:03:26;2.83;;;0.93;;
43124;SDS011;49182;50.788;7.318;2023-03-22T10:06:04;5.57;;;1.13;;
43124;SDS011;49182;50.788;7.318;2023-03-22T10:08:36;2.78;;;0.80;;
43124;SDS011;49182;50.788;7.318;2023-03-22T10:11:20;2.03;;;0.70;;
43124;SDS011;49182;50.788;7.318;2023-03-22T10:14:00;5.88;;;0.82;;
43124;SDS011;49182;50.788;7.318;2023-03-22T10:16:34;4.15;;;1.20;;
43124;SDS011;49182;50.788;7.318;2023-03-22T10:19:03;5.00;;;0.80;;
43124;SDS011;49182;50.788;7.318;2023-03-22T10:24:01;2.72;;;1.02;;
43124;SDS011;49182;50.788;7.318;2023-03-22T10:26:37;2.88;;;0.73;;
43124;SDS011;49182;50.788;7.318;2023-03-22T10:29:22;7.43;;;0.88;;
43124;SDS011;49182;50.788;7.318;2023-03-22T10:31:55;3.13;;;0.82;;
43124;SDS011;49182;50.788;7.318;2023-03-22T10:37:03;5.30;;;1.27;;
43124;SDS011;49182;50.788;7.318;2023-03-22T10:39:33;4.07;;;0.70;;
43124;SDS011;49182;50.788;7.318;2023-03-22T10:42:07;5.10;;;0.73;;
43124;SDS011;49182;50.788;7.318;2023-03-22T10:44:42;4.05;;;1.10;;
43124;SDS011;49182;50.788;7.318;2023-03-22T10:47:13;4.10;;;0.85;;
43124;SDS011;49182;50.788;7.318;2023-03-22T10:49:44;2.90;;;1.00;;
43124;SDS011;49182;50.788;7.318;2023-03-22T10:52:21;4.53;;;0.77;;
43124;SDS011;49182;50.788;7.318;2023-03-22T10:54:58;3.33;;;0.80;;
43124;SDS011;49182;50.788;7.318;2023-03-22T10:57:29;3.25;;;0.80;;
43124;SDS011;49182;50.788;7.318;2023-03-22T10:59:57;5.43;;;0.98;;
43124;SDS011;49182;50.788;7.318;2023-03-22T11:02:25;4.18;;;0.90;;
43124;SDS011;49182;50.788;7.318;2023-03-22T11:04:53;2.75;;;0.73;;
43124;SDS011;49182;50.788;7.318;2023-03-22T11:07:26;3.80;;;0.93;;
43124;SDS011;49182;50.788;7.318;2023-03-22T11:09:59;4.53;;;1.55;;
43124;SDS011;49182;50.788;7.318;2023-03-22T11:12:38;3.75;;;0.90;;
43124;SDS011;49182;50.788;7.318;2023-03-22T11:15:18;4.32;;;1.75;;
43124;SDS011;49182;50.788;7.318;2023-03-22T11:17:47;4.07;;;0.90;;
43124;SDS011;49182;50.788;7.318;2023-03-22T11:20:14;2.88;;;1.05;;
43124;SDS011;49182;50.788;7.318;2023-03-22T11:22:43;6.38;;;0.90;;
43124;SDS011;49182;50.788;7.318;2023-03-22T11:25:12;3.58;;;0.80;;
43124;SDS011;49182;50.788;7.318;2023-03-22T11:27:48;1.63;;;0.70;;
43124;SDS011;49182;50.788;7.318;2023-03-22T11:30:19;2.78;;;0.77;;
43124;SDS011;49182;50.788;7.318;2023-03-22T11:32:48;5.47;;;0.95;;
43124;SDS011;49182;50.788;7.318;2023-03-22T11:35:24;3.95;;;1.00;;
43124;SDS011;49182;50.788;7.318;2023-03-22T11:37:52;3.00;;;0.60;;
43124;SDS011;49182;50.788;7.318;2023-03-22T11:40:21;2.03;;;0.98;;
43124;SDS011;49182;50.788;7.318;2023-03-22T11:42:51;1.63;;;0.68;;
43124;SDS011;49182;50.788;7.318;2023-03-22T11:45:23;1.88;;;0.50;;
43124;SDS011;49182;50.788;7.318;2023-03-22T11:47:52;3.72;;;0.80;;
43124;SDS011;49182;50.788;7.318;2023-03-22T11:50:23;2.47;;;0.68;;
43124;SDS011;49182;50.788;7.318;2023-03-22T11:52:53;2.58;;;0.85;;
43124;SDS011;49182;50.788;7.318;2023-03-22T11:55:19;5.60;;;1.02;;
43124;SDS011;49182;50.788;7.318;2023-03-22T11:57:46;3.53;;;0.80;;
43124;SDS011;49182;50.788;7.318;2023-03-22T12:00:15;8.50;;;1.40;;
43124;SDS011;49182;50.788;7.318;2023-03-22T12:02:48;4.38;;;0.93;;
43124;SDS011;49182;50.788;7.318;2023-03-22T12:05:19;2.50;;;0.80;;
43124;SDS011;49182;50.788;7.318;2023-03-22T12:07:49;3.80;;;1.30;;
43124;SDS011;49182;50.788;7.318;2023-03-22T12:10:20;6.47;;;1.17;;
43124;SDS011;49182;50.788;7.318;2023-03-22T12:12:52;3.72;;;1.13;;
43124;SDS011;49182;50.788;7.318;2023-03-22T12:15:21;4.80;;;1.10;;
43124;SDS011;49182;50.788;7.318;2023-03-22T12:17:52;2.30;;;0.80;;
43124;SDS011;49182;50.788;7.318;2023-03-22T12:20:28;3.90;;;1.15;;
43124;SDS011;49182;50.788;7.318;2023-03-22T12:23:00;20.63;;;2.97;;
43124;SDS011;49182;50.788;7.318;2023-03-22T12:25:28;3.85;;;1.00;;
43124;SDS011;49182;50.788;7.318;2023-03-22T12:27:58;3.22;;;0.90;;
43124;SDS011;49182;50.788;7.318;2023-03-22T12:30:29;7.15;;;1.45;;
43124;SDS011;49182;50.788;7.318;2023-03-22T12:33:01;3.53;;;1.33;;
43124;SDS011;49182;50.788;7.318;2023-03-22T12:35:32;6.85;;;1.70;;
43124;SDS011;49182;50.788;7.318;2023-03-22T12:38:06;4.65;;;1.10;;
43124;SDS011;49182;50.788;7.318;2023-03-22T12:40:48;5.13;;;1.63;;
43124;SDS011;49182;50.788;7.318;2023-03-22T12:43:17;4.63;;;1.25;;
43124;SDS011;49182;50.788;7.318;2023-03-22T12:46:00;4.18;;;1.20;;
43124;SDS011;49182;50.788;7.318;2023-03-22T12:48:31;3.42;;;1.10;;
43124;SDS011;49182;50.788;7.318;2023-03-22T12:51:04;3.88;;;1.00;;
43124;SDS011;49182;50.788;7.318;2023-03-22T12:53:32;4.35;;;1.27;;
43124;SDS011;49182;50.788;7.318;2023-03-22T12:56:00;6.15;;;1.35;;
43124;SDS011;49182;50.788;7.318;2023-03-22T12:58:27;9.63;;;1.20;;
43124;SDS011;49182;50.788;7.318;2023-03-22T13:00:54;2.22;;;0.60;;
43124;SDS011;49182;50.788;7.318;2023-03-22T13:03:25;5.22;;;1.00;;
43124;SDS011;49182;50.788;7.318;2023-03-22T13:06:03;2.72;;;0.68;;
43124;SDS011;49182;50.788;7.318;2023-03-22T13:11:35;2.05;;;0.60;;
43124;SDS011;49182;50.788;7.318;2023-03-22T13:14:02;3.85;;;0.80;;
43124;SDS011;49182;50.788;7.318;2023-03-22T13:16:47;4.05;;;0.80;;
43124;SDS011;49182;50.788;7.318;2023-03-22T13:19:27;4.28;;;0.80;;
43124;SDS011;49182;50.788;7.318;2023-03-22T13:22:18;2.67;;;0.60;;
43124;SDS011;49182;50.788;7.318;2023-03-22T13:24:56;3.53;;;0.90;;
43124;SDS011;49182;50.788;7.318;2023-03-22T13:27:32;3.42;;;0.77;;
43124;SDS011;49182;50.788;7.318;2023-03-22T13:30:00;2.78;;;0.85;;
43124;SDS011;49182;50.788;7.318;2023-03-22T13:32:27;4.60;;;0.70;;
43124;SDS011;49182;50.788;7.318;2023-03-22T13:34:55;5.70;;;0.80;;
43124;SDS011;49182;50.788;7.318;2023-03-22T13:37:28;2.70;;;0.65;;
43124;SDS011;49182;50.788;7.318;2023-03-22T13:39:57;2.63;;;0.70;;
43124;SDS011;49182;50.788;7.318;2023-03-22T13:42:25;5.50;;;1.50;;
43124;SDS011;49182;50.788;7.318;2023-03-22T13:45:00;4.65;;;0.90;;
43124;SDS011;49182;50.788;7.318;2023-03-22T13:47:29;3.90;;;0.82;;
43124;SDS011;49182;50.788;7.318;2023-03-22T13:50:02;3.67;;;1.00;;
43124;SDS011;49182;50.788;7.318;2023-03-22T13:52:39;3.10;;;0.80;;
43124;SDS011;49182;50.788;7.318;2023-03-22T13:58:08;2.53;;;0.88;;
43124;SDS011;49182;50.788;7.318;2023-03-22T14:00:50;3.63;;;0.75;;
43124;SDS011;49182;50.788;7.318;2023-03-22T14:03:25;2.97;;;0.73;;
43124;SDS011;49182;50.788;7.318;2023-03-22T14:06:06;3.08;;;0.80;;
43124;SDS011;49182;50.788;7.318;2023-03-22T14:08:40;3.67;;;0.88;;
43124;SDS011;49182;50.788;7.318;2023-03-22T14:11:19;3.20;;;0.73;;
43124;SDS011;49182;50.788;7.318;2023-03-22T14:13:49;7.50;;;1.23;;
43124;SDS011;49182;50.788;7.318;2023-03-22T14:16:20;4.60;;;1.10;;
43124;SDS011;49182;50.788;7.318;2023-03-22T14:18:58;6.22;;;1.17;;
43124;SDS011;49182;50.788;7.318;2023-03-22T14:21:27;4.80;;;1.02;;
43124;SDS011;49182;50.788;7.318;2023-03-22T14:24:02;4.18;;;0.70;;
43124;SDS011;49182;50.788;7.318;2023-03-22T14:26:30;4.43;;;0.93;;
43124;SDS011;49182;50.788;7.318;2023-03-22T14:29:06;4.45;;;0.70;;
43124;SDS011;49182;50.788;7.318;2023-03-22T14:31:33;2.95;;;0.50;;
43124;SDS011;49182;50.788;7.318;2023-03-22T14:33:59;2.22;;;0.80;;
43124;SDS011;49182;50.788;7.318;2023-03-22T14:36:27;5.78;;;1.45;;
43124;SDS011;49182;50.788;7.318;2023-03-22T14:38:57;8.23;;;2.10;;
43124;SDS011;49182;50.788;7.318;2023-03-22T14:41:31;3.83;;;1.20;;
43124;SDS011;49182;50.788;7.318;2023-03-22T14:43:58;3.55;;;1.15;;
43124;SDS011;49182;50.788;7.318;2023-03-22T14:46:25;3.92;;;1.10;;
43124;SDS011;49182;50.788;7.318;2023-03-22T14:48:57;3.13;;;1.13;;
43124;SDS011;49182;50.788;7.318;2023-03-22T14:51:33;4.72;;;0.80;;
43124;SDS011;49182;50.788;7.318;2023-03-22T14:54:02;2.83;;;0.80;;
43124;SDS011;49182;50.788;7.318;2023-03-22T14:56:31;2.90;;;1.02;;
43124;SDS011;49182;50.788;7.318;2023-03-22T14:58:59;3.65;;;1.10;;
43124;SDS011;49182;50.788;7.318;2023-03-22T15:01:27;4.65;;;1.15;;
43124;SDS011;49182;50.788;7.318;2023-03-22T15:03:56;2.90;;;1.00;;
43124;SDS011;49182;50.788;7.318;2023-03-22T15:06:24;3.08;;;0.80;;
43124;SDS011;49182;50.788;7.318;2023-03-22T15:08:51;4.38;;;0.80;;
43124;SDS011;49182;50.788;7.318;2023-03-22T15:11:18;2.92;;;0.60;;
43124;SDS011;49182;50.788;7.318;2023-03-22T15:13:45;2.97;;;0.85;;
43124;SDS011;49182;50.788;7.318;2023-03-22T15:16:13;2.80;;;0.88;;
43124;SDS011;49182;50.788;7.318;2023-03-22T15:18:42;6.50;;;1.05;;
43124;SDS011;49182;50.788;7.318;2023-03-22T15:21:08;2.65;;;1.27;;
43124;SDS011;49182;50.788;7.318;2023-03-22T15:23:35;4.00;;;0.70;;
43124;SDS011;49182;50.788;7.318;2023-03-22T15:26:06;2.90;;;0.75;;
43124;SDS011;49182;50.788;7.318;2023-03-22T15:28:40;4.05;;;1.17;;
43124;SDS011;49182;50.788;7.318;2023-03-22T15:31:16;2.88;;;0.95;;
43124;SDS011;49182;50.788;7.318;2023-03-22T15:33:53;3.78;;;0.80;;